This is the latest recevied weather packets stored in our database for station/object VK3MAK-1. If no packets are shown the sender has not sent any weather packets the latest 10 day(s).
| Time | Temp. | Humidity | Pressure | Rain* | Wind** | Luminosity | Snow |
|---|---|---|---|---|---|---|---|
| 1778096403 | 6.67° C | 90% | 1021.8 hPa | 0.25 mm | 5.36 m/s, 225° | - | - |
| 1778095803 | 6.11° C | 99% | 1022.1 hPa | 0 mm | 3.13 m/s, 203° | - | - |
| 1778095203 | 6.11° C | 99% | 1022.1 hPa | 0 mm | 3.13 m/s, 203° | - | - |
| 1778094604 | 6.11° C | 99% | 1022.1 hPa | 0 mm | 3.13 m/s, 203° | - | - |
| 1778094003 | 5° C | 10% | - | 0 mm | 1.34 m/s, 248° | - | - |
| 1778093403 | 5° C | 10% | - | 0.25 mm | 1.34 m/s, 248° | - | - |
| 1778092803 | 5° C | 10% | - | 0.25 mm | 1.34 m/s, 248° | - | - |
| 1778092203 | 3.89° C | 10% | - | 0 mm | 2.24 m/s, 293° | - | - |
| 1778091603 | 3.89° C | 10% | - | 0 mm | 2.24 m/s, 293° | - | - |
| 1778091003 | 3.89° C | 10% | - | 0 mm | 2.24 m/s, 293° | - | - |
| 1778090403 | 4.44° C | 97% | 1021.4 hPa | 1.78 mm | 4.02 m/s, 225° | - | - |
| 1778089803 | 4.44° C | 97% | 1021.4 hPa | 2.29 mm | 4.02 m/s, 225° | - | - |
| 1778089203 | 4.44° C | 97% | 1021.4 hPa | 2.29 mm | 4.02 m/s, 225° | - | - |
| 1778088603 | 5.56° C | 91% | 1021.1 hPa | 1.02 mm | 6.71 m/s, 225° | - | - |
| 1778088003 | 5.56° C | 91% | 1021.1 hPa | 1.02 mm | 6.71 m/s, 225° | - | - |
| 1778087403 | 6.11° C | 90% | 1021.5 hPa | 0 mm | 3.58 m/s, 270° | - | - |
| 1778086804 | 5.56° C | 85% | 1020.8 hPa | 0 mm | 3.13 m/s, 248° | - | - |
| 1778086203 | 5.56° C | 85% | 1020.8 hPa | 0.51 mm | 3.13 m/s, 248° | - | - |
| 1778084403 | 6.11° C | 82% | 1021.1 hPa | 0.51 mm | 4.47 m/s, 248° | - | - |
| 1778083803 | 6.11° C | 82% | 1021.1 hPa | 0.51 mm | 4.47 m/s, 248° | - | - |
| 1778083204 | 6.11° C | 83% | 1020.5 hPa | 0 mm | 4.47 m/s, 248° | - | - |
| 1778082603 | 6.11° C | 83% | 1020.5 hPa | 0 mm | 4.47 m/s, 248° | - | - |
| 1778082003 | 6.11° C | 83% | 1020.5 hPa | 0 mm | 4.47 m/s, 248° | - | - |
| 1778081403 | 6.11° C | 80% | 1020.6 hPa | 0 mm | 4.02 m/s, 248° | - | - |
| 1778080803 | 6.11° C | 80% | 1020.6 hPa | 0 mm | 4.02 m/s, 248° | - | - |
* Rain latest hour (hover to see other rain measurements)
** Current wind speed in m/s (hover to see current wind gust speed)